sensor_id;sensor_type;location;lat;lon;timestamp;temperature;humidity
49321;DHT22;35817;44.498;0.166;2022-07-23T00:01:20;19.00;94.70
49321;DHT22;35817;44.498;0.166;2022-07-23T00:03:46;18.90;94.80
49321;DHT22;35817;44.498;0.166;2022-07-23T00:06:12;18.90;95.00
49321;DHT22;35817;44.498;0.166;2022-07-23T00:08:37;18.90;95.40
49321;DHT22;35817;44.498;0.166;2022-07-23T00:11:03;18.80;95.30
49321;DHT22;35817;44.498;0.166;2022-07-23T00:13:29;18.80;95.30
49321;DHT22;35817;44.498;0.166;2022-07-23T00:15:55;18.80;95.50
49321;DHT22;35817;44.498;0.166;2022-07-23T00:18:20;18.80;95.60
49321;DHT22;35817;44.498;0.166;2022-07-23T00:20:46;18.70;95.90
49321;DHT22;35817;44.498;0.166;2022-07-23T00:23:12;18.70;95.80
49321;DHT22;35817;44.498;0.166;2022-07-23T00:25:38;18.60;96.00
49321;DHT22;35817;44.498;0.166;2022-07-23T00:28:04;18.60;96.10
49321;DHT22;35817;44.498;0.166;2022-07-23T00:30:31;18.50;96.20
49321;DHT22;35817;44.498;0.166;2022-07-23T00:33:00;18.50;96.30
49321;DHT22;35817;44.498;0.166;2022-07-23T00:35:29;18.40;96.40
49321;DHT22;35817;44.498;0.166;2022-07-23T00:37:55;18.40;96.50
49321;DHT22;35817;44.498;0.166;2022-07-23T00:40:21;18.30;96.70
49321;DHT22;35817;44.498;0.166;2022-07-23T00:42:47;18.30;96.90
49321;DHT22;35817;44.498;0.166;2022-07-23T00:45:13;18.20;97.00
49321;DHT22;35817;44.498;0.166;2022-07-23T00:47:39;18.20;97.30
49321;DHT22;35817;44.498;0.166;2022-07-23T00:50:06;18.20;97.40
49321;DHT22;35817;44.498;0.166;2022-07-23T00:52:33;18.10;97.60
49321;DHT22;35817;44.498;0.166;2022-07-23T00:54:59;18.10;97.70
49321;DHT22;35817;44.498;0.166;2022-07-23T00:57:26;18.10;97.90
49321;DHT22;35817;44.498;0.166;2022-07-23T00:59:51;18.10;97.90
49321;DHT22;35817;44.498;0.166;2022-07-23T01:02:17;18.00;97.90
49321;DHT22;35817;44.498;0.166;2022-07-23T01:04:43;18.00;98.20
49321;DHT22;35817;44.498;0.166;2022-07-23T01:07:09;18.00;98.40
49321;DHT22;35817;44.498;0.166;2022-07-23T01:09:36;17.90;98.50
49321;DHT22;35817;44.498;0.166;2022-07-23T01:12:03;17.90;98.60
49321;DHT22;35817;44.498;0.166;2022-07-23T01:14:28;17.90;98.90
49321;DHT22;35817;44.498;0.166;2022-07-23T01:16:54;17.90;99.10
49321;DHT22;35817;44.498;0.166;2022-07-23T01:19:20;17.90;99.20
49321;DHT22;35817;44.498;0.166;2022-07-23T01:21:50;17.90;99.30
49321;DHT22;35817;44.498;0.166;2022-07-23T01:24:17;17.90;99.40
49321;DHT22;35817;44.498;0.166;2022-07-23T01:26:47;17.90;99.50
49321;DHT22;35817;44.498;0.166;2022-07-23T01:29:14;17.90;99.50
49321;DHT22;35817;44.498;0.166;2022-07-23T01:31:40;17.90;99.50
49321;DHT22;35817;44.498;0.166;2022-07-23T01:34:06;17.80;99.50
49321;DHT22;35817;44.498;0.166;2022-07-23T01:36:33;17.90;99.70
49321;DHT22;35817;44.498;0.166;2022-07-23T01:39:00;17.80;99.60
49321;DHT22;35817;44.498;0.166;2022-07-23T01:41:25;17.80;99.70
49321;DHT22;35817;44.498;0.166;2022-07-23T01:43:51;17.80;99.70
49321;DHT22;35817;44.498;0.166;2022-07-23T01:46:17;17.80;99.80
49321;DHT22;35817;44.498;0.166;2022-07-23T01:48:43;17.80;99.90
49321;DHT22;35817;44.498;0.166;2022-07-23T01:51:09;17.80;99.90
49321;DHT22;35817;44.498;0.166;2022-07-23T01:53:34;17.70;99.90
49321;DHT22;35817;44.498;0.166;2022-07-23T01:56:00;17.70;99.90
49321;DHT22;35817;44.498;0.166;2022-07-23T01:58:27;17.70;99.90
49321;DHT22;35817;44.498;0.166;2022-07-23T02:00:53;17.70;99.90
49321;DHT22;35817;44.498;0.166;2022-07-23T02:03:19;17.70;99.90
49321;DHT22;35817;44.498;0.166;2022-07-23T02:05:45;17.70;99.90
49321;DHT22;35817;44.498;0.166;2022-07-23T02:08:11;17.60;99.90
49321;DHT22;35817;44.498;0.166;2022-07-23T02:10:37;17.60;99.90
49321;DHT22;35817;44.498;0.166;2022-07-23T02:13:02;17.50;99.90
49321;DHT22;35817;44.498;0.166;2022-07-23T02:15:28;17.50;99.90
49321;DHT22;35817;44.498;0.166;2022-07-23T02:17:54;17.40;99.90
49321;DHT22;35817;44.498;0.166;2022-07-23T02:20:21;17.30;99.90
49321;DHT22;35817;44.498;0.166;2022-07-23T02:22:47;17.30;99.90
49321;DHT22;35817;44.498;0.166;2022-07-23T02:25:13;17.30;99.90
49321;DHT22;35817;44.498;0.166;2022-07-23T02:27:39;17.20;99.90
49321;DHT22;35817;44.498;0.166;2022-07-23T02:30:05;17.10;99.90
49321;DHT22;35817;44.498;0.166;2022-07-23T02:32:31;17.10;99.90
49321;DHT22;35817;44.498;0.166;2022-07-23T02:34:57;17.00;99.90
49321;DHT22;35817;44.498;0.166;2022-07-23T02:37:23;17.00;99.90
49321;DHT22;35817;44.498;0.166;2022-07-23T02:39:48;16.90;99.90
49321;DHT22;35817;44.498;0.166;2022-07-23T02:42:15;16.90;99.90
49321;DHT22;35817;44.498;0.166;2022-07-23T02:44:41;16.80;99.90
49321;DHT22;35817;44.498;0.166;2022-07-23T02:47:06;16.80;99.90
49321;DHT22;35817;44.498;0.166;2022-07-23T02:49:33;16.80;99.90
49321;DHT22;35817;44.498;0.166;2022-07-23T02:51:58;16.70;99.90
49321;DHT22;35817;44.498;0.166;2022-07-23T02:54:24;16.70;99.90
49321;DHT22;35817;44.498;0.166;2022-07-23T02:56:50;16.60;99.90
49321;DHT22;35817;44.498;0.166;2022-07-23T02:59:17;16.60;99.90
49321;DHT22;35817;44.498;0.166;2022-07-23T03:01:43;16.60;99.90
49321;DHT22;35817;44.498;0.166;2022-07-23T03:04:09;16.50;99.90
49321;DHT22;35817;44.498;0.166;2022-07-23T03:06:35;16.50;99.90
49321;DHT22;35817;44.498;0.166;2022-07-23T03:09:01;16.40;99.90
49321;DHT22;35817;44.498;0.166;2022-07-23T03:11:27;16.40;99.90
49321;DHT22;35817;44.498;0.166;2022-07-23T03:13:52;16.30;99.90
49321;DHT22;35817;44.498;0.166;2022-07-23T03:16:18;16.30;99.90
49321;DHT22;35817;44.498;0.166;2022-07-23T03:18:44;16.30;99.90
49321;DHT22;35817;44.498;0.166;2022-07-23T03:21:09;16.30;99.90
49321;DHT22;35817;44.498;0.166;2022-07-23T03:23:35;16.20;99.90
49321;DHT22;35817;44.498;0.166;2022-07-23T03:26:01;16.20;99.90
49321;DHT22;35817;44.498;0.166;2022-07-23T03:28:27;16.20;99.90
49321;DHT22;35817;44.498;0.166;2022-07-23T03:30:52;16.20;99.90
49321;DHT22;35817;44.498;0.166;2022-07-23T03:33:19;16.10;99.90
49321;DHT22;35817;44.498;0.166;2022-07-23T03:35:47;16.10;99.90
49321;DHT22;35817;44.498;0.166;2022-07-23T03:38:13;16.00;99.90
49321;DHT22;35817;44.498;0.166;2022-07-23T03:40:39;16.00;99.90
49321;DHT22;35817;44.498;0.166;2022-07-23T03:43:04;16.10;99.90
49321;DHT22;35817;44.498;0.166;2022-07-23T03:45:30;16.00;99.90
49321;DHT22;35817;44.498;0.166;2022-07-23T03:47:56;16.00;99.90
49321;DHT22;35817;44.498;0.166;2022-07-23T03:50:22;16.00;99.90
49321;DHT22;35817;44.498;0.166;2022-07-23T03:52:48;15.90;99.90
49321;DHT22;35817;44.498;0.166;2022-07-23T03:55:14;15.90;99.90
49321;DHT22;35817;44.498;0.166;2022-07-23T03:57:40;15.90;99.90
49321;DHT22;35817;44.498;0.166;2022-07-23T04:00:07;15.90;99.90
49321;DHT22;35817;44.498;0.166;2022-07-23T04:02:35;16.00;99.90
49321;DHT22;35817;44.498;0.166;2022-07-23T04:05:00;16.00;99.90
49321;DHT22;35817;44.498;0.166;2022-07-23T04:07:26;15.90;99.90
49321;DHT22;35817;44.498;0.166;2022-07-23T04:09:52;15.90;99.90
49321;DHT22;35817;44.498;0.166;2022-07-23T04:12:18;16.00;99.90
49321;DHT22;35817;44.498;0.166;2022-07-23T04:14:44;16.00;99.90
49321;DHT22;35817;44.498;0.166;2022-07-23T04:17:09;16.00;99.90
49321;DHT22;35817;44.498;0.166;2022-07-23T04:19:35;16.00;99.90
49321;DHT22;35817;44.498;0.166;2022-07-23T04:22:06;16.00;99.90
49321;DHT22;35817;44.498;0.166;2022-07-23T04:24:32;16.00;99.90
49321;DHT22;35817;44.498;0.166;2022-07-23T04:26:58;16.10;99.90
49321;DHT22;35817;44.498;0.166;2022-07-23T04:29:24;16.10;99.90
49321;DHT22;35817;44.498;0.166;2022-07-23T04:31:49;16.00;99.90
49321;DHT22;35817;44.498;0.166;2022-07-23T04:34:15;16.00;99.90
49321;DHT22;35817;44.498;0.166;2022-07-23T04:36:41;16.10;99.90
49321;DHT22;35817;44.498;0.166;2022-07-23T04:39:07;16.10;99.90
49321;DHT22;35817;44.498;0.166;2022-07-23T04:41:33;16.10;99.90
49321;DHT22;35817;44.498;0.166;2022-07-23T04:44:00;16.10;99.90
49321;DHT22;35817;44.498;0.166;2022-07-23T04:46:26;16.10;99.90
49321;DHT22;35817;44.498;0.166;2022-07-23T04:48:51;16.10;99.90
49321;DHT22;35817;44.498;0.166;2022-07-23T04:51:17;16.00;99.90
49321;DHT22;35817;44.498;0.166;2022-07-23T04:53:43;16.00;99.90
49321;DHT22;35817;44.498;0.166;2022-07-23T04:56:09;16.00;99.90
49321;DHT22;35817;44.498;0.166;2022-07-23T04:58:35;16.00;99.90
49321;DHT22;35817;44.498;0.166;2022-07-23T05:01:01;16.00;99.90
49321;DHT22;35817;44.498;0.166;2022-07-23T05:03:26;16.00;99.90
49321;DHT22;35817;44.498;0.166;2022-07-23T05:05:52;16.00;99.90
49321;DHT22;35817;44.498;0.166;2022-07-23T05:08:18;16.10;99.90
49321;DHT22;35817;44.498;0.166;2022-07-23T05:10:44;16.10;99.90
49321;DHT22;35817;44.498;0.166;2022-07-23T05:13:09;16.10;99.90
49321;DHT22;35817;44.498;0.166;2022-07-23T05:15:35;16.10;99.90
49321;DHT22;35817;44.498;0.166;2022-07-23T05:18:01;16.10;99.90
49321;DHT22;35817;44.498;0.166;2022-07-23T05:20:27;16.10;99.90
49321;DHT22;35817;44.498;0.166;2022-07-23T05:22:52;16.10;99.90
49321;DHT22;35817;44.498;0.166;2022-07-23T05:25:18;16.10;99.90
49321;DHT22;35817;44.498;0.166;2022-07-23T05:27:44;16.20;99.90
49321;DHT22;35817;44.498;0.166;2022-07-23T05:30:10;16.30;99.90
49321;DHT22;35817;44.498;0.166;2022-07-23T05:32:36;16.40;99.90
49321;DHT22;35817;44.498;0.166;2022-07-23T05:35:02;16.50;99.90
49321;DHT22;35817;44.498;0.166;2022-07-23T05:37:28;16.60;99.90
49321;DHT22;35817;44.498;0.166;2022-07-23T05:39:53;16.70;99.90
49321;DHT22;35817;44.498;0.166;2022-07-23T05:42:19;16.80;99.90
49321;DHT22;35817;44.498;0.166;2022-07-23T05:44:44;16.90;99.90
49321;DHT22;35817;44.498;0.166;2022-07-23T05:47:10;16.90;99.90
49321;DHT22;35817;44.498;0.166;2022-07-23T05:49:36;17.00;99.90
49321;DHT22;35817;44.498;0.166;2022-07-23T05:52:05;17.00;99.90
49321;DHT22;35817;44.498;0.166;2022-07-23T05:54:33;17.00;99.90
49321;DHT22;35817;44.498;0.166;2022-07-23T05:56:59;17.10;99.90
49321;DHT22;35817;44.498;0.166;2022-07-23T05:59:26;17.20;99.90
49321;DHT22;35817;44.498;0.166;2022-07-23T06:01:52;17.20;99.90
49321;DHT22;35817;44.498;0.166;2022-07-23T06:04:20;17.30;99.90
49321;DHT22;35817;44.498;0.166;2022-07-23T06:06:45;17.40;99.90
49321;DHT22;35817;44.498;0.166;2022-07-23T06:09:11;17.40;99.90
49321;DHT22;35817;44.498;0.166;2022-07-23T06:11:39;17.40;99.90
49321;DHT22;35817;44.498;0.166;2022-07-23T06:14:04;17.50;99.90
49321;DHT22;35817;44.498;0.166;2022-07-23T06:16:30;17.60;99.90
49321;DHT22;35817;44.498;0.166;2022-07-23T06:19:00;17.70;99.90
49321;DHT22;35817;44.498;0.166;2022-07-23T06:21:25;17.70;99.90
49321;DHT22;35817;44.498;0.166;2022-07-23T06:23:51;17.80;99.90
49321;DHT22;35817;44.498;0.166;2022-07-23T06:26:16;17.90;99.90
49321;DHT22;35817;44.498;0.166;2022-07-23T06:28:42;17.90;99.90
49321;DHT22;35817;44.498;0.166;2022-07-23T06:31:07;18.00;99.90
49321;DHT22;35817;44.498;0.166;2022-07-23T06:33:33;18.10;99.90
49321;DHT22;35817;44.498;0.166;2022-07-23T06:35:59;18.10;99.90
49321;DHT22;35817;44.498;0.166;2022-07-23T06:38:24;18.10;99.90
49321;DHT22;35817;44.498;0.166;2022-07-23T06:40:50;18.20;99.90
49321;DHT22;35817;44.498;0.166;2022-07-23T06:43:16;18.20;99.90
49321;DHT22;35817;44.498;0.166;2022-07-23T06:45:41;18.30;99.90
49321;DHT22;35817;44.498;0.166;2022-07-23T06:48:07;18.30;99.90
49321;DHT22;35817;44.498;0.166;2022-07-23T06:50:33;18.30;99.90
49321;DHT22;35817;44.498;0.166;2022-07-23T06:52:58;18.50;99.90
49321;DHT22;35817;44.498;0.166;2022-07-23T06:55:24;18.60;99.90
49321;DHT22;35817;44.498;0.166;2022-07-23T06:57:52;18.70;99.90
49321;DHT22;35817;44.498;0.166;2022-07-23T07:00:18;18.80;99.90
49321;DHT22;35817;44.498;0.166;2022-07-23T07:02:44;18.90;99.90
49321;DHT22;35817;44.498;0.166;2022-07-23T07:05:10;19.00;99.90
49321;DHT22;35817;44.498;0.166;2022-07-23T07:07:35;19.20;99.90
49321;DHT22;35817;44.498;0.166;2022-07-23T07:10:02;19.30;99.50
49321;DHT22;35817;44.498;0.166;2022-07-23T07:12:27;19.50;99.10
49321;DHT22;35817;44.498;0.166;2022-07-23T07:14:53;19.50;98.80
49321;DHT22;35817;44.498;0.166;2022-07-23T07:17:19;19.70;98.50
49321;DHT22;35817;44.498;0.166;2022-07-23T07:19:44;19.70;98.30
49321;DHT22;35817;44.498;0.166;2022-07-23T07:22:10;19.80;98.30
49321;DHT22;35817;44.498;0.166;2022-07-23T07:24:35;19.90;98.10
49321;DHT22;35817;44.498;0.166;2022-07-23T07:27:01;20.00;97.90
49321;DHT22;35817;44.498;0.166;2022-07-23T07:29:27;20.20;97.70
49321;DHT22;35817;44.498;0.166;2022-07-23T07:31:53;20.30;97.60
49321;DHT22;35817;44.498;0.166;2022-07-23T07:34:19;20.50;97.30
49321;DHT22;35817;44.498;0.166;2022-07-23T07:36:44;20.60;97.10
49321;DHT22;35817;44.498;0.166;2022-07-23T07:39:10;20.80;96.70
49321;DHT22;35817;44.498;0.166;2022-07-23T07:41:36;20.90;96.60
49321;DHT22;35817;44.498;0.166;2022-07-23T07:44:01;21.20;96.60
49321;DHT22;35817;44.498;0.166;2022-07-23T07:46:27;21.40;96.20
49321;DHT22;35817;44.498;0.166;2022-07-23T07:48:53;21.60;95.50
49321;DHT22;35817;44.498;0.166;2022-07-23T07:51:19;21.70;95.10
49321;DHT22;35817;44.498;0.166;2022-07-23T07:53:44;21.90;95.00
49321;DHT22;35817;44.498;0.166;2022-07-23T07:56:10;22.10;94.50
49321;DHT22;35817;44.498;0.166;2022-07-23T07:58:35;22.20;94.10
49321;DHT22;35817;44.498;0.166;2022-07-23T08:01:01;22.10;93.60
49321;DHT22;35817;44.498;0.166;2022-07-23T08:03:27;22.00;93.80
49321;DHT22;35817;44.498;0.166;2022-07-23T08:05:53;21.90;94.10
49321;DHT22;35817;44.498;0.166;2022-07-23T08:08:19;21.90;94.20
49321;DHT22;35817;44.498;0.166;2022-07-23T08:10:44;21.90;94.20
49321;DHT22;35817;44.498;0.166;2022-07-23T08:13:14;21.90;94.50
49321;DHT22;35817;44.498;0.166;2022-07-23T08:15:40;22.00;94.20
49321;DHT22;35817;44.498;0.166;2022-07-23T08:18:06;21.80;94.10
49321;DHT22;35817;44.498;0.166;2022-07-23T08:20:32;21.80;94.30
49321;DHT22;35817;44.498;0.166;2022-07-23T08:25:24;21.90;94.60
49321;DHT22;35817;44.498;0.166;2022-07-23T08:27:50;22.30;93.80
49321;DHT22;35817;44.498;0.166;2022-07-23T08:30:17;22.60;93.00
49321;DHT22;35817;44.498;0.166;2022-07-23T08:32:50;23.00;92.40
49321;DHT22;35817;44.498;0.166;2022-07-23T08:35:16;23.40;92.00
49321;DHT22;35817;44.498;0.166;2022-07-23T08:37:42;23.80;91.00
49321;DHT22;35817;44.498;0.166;2022-07-23T08:40:08;24.00;90.50
49321;DHT22;35817;44.498;0.166;2022-07-23T08:42:34;24.10;89.60
49321;DHT22;35817;44.498;0.166;2022-07-23T08:45:03;24.00;89.20
49321;DHT22;35817;44.498;0.166;2022-07-23T08:47:29;24.10;87.40
49321;DHT22;35817;44.498;0.166;2022-07-23T08:49:55;24.10;86.70
49321;DHT22;35817;44.498;0.166;2022-07-23T08:52:22;24.10;86.90
49321;DHT22;35817;44.498;0.166;2022-07-23T08:54:47;24.10;86.50
49321;DHT22;35817;44.498;0.166;2022-07-23T08:57:14;24.10;85.90
49321;DHT22;35817;44.498;0.166;2022-07-23T08:59:40;24.00;85.30
49321;DHT22;35817;44.498;0.166;2022-07-23T09:02:06;23.80;85.80
49321;DHT22;35817;44.498;0.166;2022-07-23T09:04:31;23.70;85.00
49321;DHT22;35817;44.498;0.166;2022-07-23T09:06:57;23.60;84.90
49321;DHT22;35817;44.498;0.166;2022-07-23T09:09:23;23.50;85.90
49321;DHT22;35817;44.498;0.166;2022-07-23T09:12:02;23.50;84.60
49321;DHT22;35817;44.498;0.166;2022-07-23T09:14:35;23.50;84.00
49321;DHT22;35817;44.498;0.166;2022-07-23T09:17:08;23.70;84.50
49321;DHT22;35817;44.498;0.166;2022-07-23T09:19:34;24.00;84.00
49321;DHT22;35817;44.498;0.166;2022-07-23T09:22:15;24.40;82.60
49321;DHT22;35817;44.498;0.166;2022-07-23T09:25:02;24.60;81.00
49321;DHT22;35817;44.498;0.166;2022-07-23T09:27:44;24.90;80.30
49321;DHT22;35817;44.498;0.166;2022-07-23T09:30:10;25.20;79.70
49321;DHT22;35817;44.498;0.166;2022-07-23T09:32:36;25.50;77.50
49321;DHT22;35817;44.498;0.166;2022-07-23T09:35:02;25.70;77.50
49321;DHT22;35817;44.498;0.166;2022-07-23T09:37:27;25.80;77.10
49321;DHT22;35817;44.498;0.166;2022-07-23T09:39:53;25.90;77.70
49321;DHT22;35817;44.498;0.166;2022-07-23T09:42:28;26.00;76.20
49321;DHT22;35817;44.498;0.166;2022-07-23T09:44:55;25.80;76.00
49321;DHT22;35817;44.498;0.166;2022-07-23T09:47:21;25.90;76.20
49321;DHT22;35817;44.498;0.166;2022-07-23T09:52:33;26.40;74.90
49321;DHT22;35817;44.498;0.166;2022-07-23T09:54:59;26.70;73.00
49321;DHT22;35817;44.498;0.166;2022-07-23T09:57:25;26.70;73.00
49321;DHT22;35817;44.498;0.166;2022-07-23T09:59:52;26.70;71.80
49321;DHT22;35817;44.498;0.166;2022-07-23T10:02:17;26.60;72.40
49321;DHT22;35817;44.498;0.166;2022-07-23T10:04:43;26.80;72.10
49321;DHT22;35817;44.498;0.166;2022-07-23T10:07:11;27.20;71.50
49321;DHT22;35817;44.498;0.166;2022-07-23T10:09:39;27.70;70.20
49321;DHT22;35817;44.498;0.166;2022-07-23T10:12:09;28.00;68.80
49321;DHT22;35817;44.498;0.166;2022-07-23T10:14:38;28.30;67.60
49321;DHT22;35817;44.498;0.166;2022-07-23T10:39:34;29.50;61.50
49321;DHT22;35817;44.498;0.166;2022-07-23T10:42:08;29.50;61.30
49321;DHT22;35817;44.498;0.166;2022-07-23T10:44:39;29.40;62.30
49321;DHT22;35817;44.498;0.166;2022-07-23T10:47:07;29.20;62.10
49321;DHT22;35817;44.498;0.166;2022-07-23T11:18:58;27.40;67.00
49321;DHT22;35817;44.498;0.166;2022-07-23T11:21:46;27.40;66.40
49321;DHT22;35817;44.498;0.166;2022-07-23T11:24:13;27.60;65.80
49321;DHT22;35817;44.498;0.166;2022-07-23T11:37:08;28.50;64.00
49321;DHT22;35817;44.498;0.166;2022-07-23T11:39:39;29.70;61.00
49321;DHT22;35817;44.498;0.166;2022-07-23T11:42:06;30.80;59.50
49321;DHT22;35817;44.498;0.166;2022-07-23T11:44:39;32.20;55.70
49321;DHT22;35817;44.498;0.166;2022-07-23T11:47:06;33.00;53.90
49321;DHT22;35817;44.498;0.166;2022-07-23T11:49:35;33.90;52.80
49321;DHT22;35817;44.498;0.166;2022-07-23T11:52:12;34.60;51.40
49321;DHT22;35817;44.498;0.166;2022-07-23T11:57:35;36.00;48.40
49321;DHT22;35817;44.498;0.166;2022-07-23T12:17:14;38.60;46.50
49321;DHT22;35817;44.498;0.166;2022-07-23T12:19:39;38.30;46.80
49321;DHT22;35817;44.498;0.166;2022-07-23T12:22:05;37.40;46.90
49321;DHT22;35817;44.498;0.166;2022-07-23T12:24:54;37.70;47.00
49321;DHT22;35817;44.498;0.166;2022-07-23T12:37:46;37.40;46.10
49321;DHT22;35817;44.498;0.166;2022-07-23T12:40:30;37.80;46.30
49321;DHT22;35817;44.498;0.166;2022-07-23T12:43:02;38.40;44.40
49321;DHT22;35817;44.498;0.166;2022-07-23T12:45:28;39.10;44.60
49321;DHT22;35817;44.498;0.166;2022-07-23T13:02:57;40.40;43.80
49321;DHT22;35817;44.498;0.166;2022-07-23T13:06:21;39.90;43.50
49321;DHT22;35817;44.498;0.166;2022-07-23T13:08:55;41.00;44.10
49321;DHT22;35817;44.498;0.166;2022-07-23T13:12:01;41.30;42.20
49321;DHT22;35817;44.498;0.166;2022-07-23T13:14:54;40.60;42.80
49321;DHT22;35817;44.498;0.166;2022-07-23T13:48:46;42.90;40.40
49321;DHT22;35817;44.498;0.166;2022-07-23T13:51:11;41.90;41.30
49321;DHT22;35817;44.498;0.166;2022-07-23T13:53:40;42.40;41.00
49321;DHT22;35817;44.498;0.166;2022-07-23T13:56:08;42.80;40.10
49321;DHT22;35817;44.498;0.166;2022-07-23T14:38:25;43.80;38.50
49321;DHT22;35817;44.498;0.166;2022-07-23T14:41:31;44.60;37.80
49321;DHT22;35817;44.498;0.166;2022-07-23T14:43:57;45.10;36.50
49321;DHT22;35817;44.498;0.166;2022-07-23T14:46:31;45.50;37.60
49321;DHT22;35817;44.498;0.166;2022-07-23T14:48:56;46.10;38.10
49321;DHT22;35817;44.498;0.166;2022-07-23T14:51:45;46.70;36.80
49321;DHT22;35817;44.498;0.166;2022-07-23T14:54:11;47.00;37.20
49321;DHT22;35817;44.498;0.166;2022-07-23T14:56:43;47.40;37.50
49321;DHT22;35817;44.498;0.166;2022-07-23T15:25:54;44.00;39.20
49321;DHT22;35817;44.498;0.166;2022-07-23T16:29:44;44.40;34.80
49321;DHT22;35817;44.498;0.166;2022-07-23T16:32:12;44.60;35.80
49321;DHT22;35817;44.498;0.166;2022-07-23T16:34:40;44.90;36.20
49321;DHT22;35817;44.498;0.166;2022-07-23T16:37:11;45.00;35.80
49321;DHT22;35817;44.498;0.166;2022-07-23T16:39:38;45.20;35.80
49321;DHT22;35817;44.498;0.166;2022-07-23T16:42:10;45.20;35.20
49321;DHT22;35817;44.498;0.166;2022-07-23T16:45:29;45.10;35.40
49321;DHT22;35817;44.498;0.166;2022-07-23T16:58:24;43.50;36.50
49321;DHT22;35817;44.498;0.166;2022-07-23T17:01:01;42.30;37.40
49321;DHT22;35817;44.498;0.166;2022-07-23T17:03:26;41.90;38.30
49321;DHT22;35817;44.498;0.166;2022-07-23T17:05:54;42.10;39.20
49321;DHT22;35817;44.498;0.166;2022-07-23T17:08:23;42.60;37.40
49321;DHT22;35817;44.498;0.166;2022-07-23T17:10:49;42.90;36.50
49321;DHT22;35817;44.498;0.166;2022-07-23T17:13:15;42.80;35.30
49321;DHT22;35817;44.498;0.166;2022-07-23T17:15:43;42.30;35.40
49321;DHT22;35817;44.498;0.166;2022-07-23T18:33:40;35.80;40.60
49321;DHT22;35817;44.498;0.166;2022-07-23T18:36:06;35.20;40.80
49321;DHT22;35817;44.498;0.166;2022-07-23T18:38:44;34.60;41.70
49321;DHT22;35817;44.498;0.166;2022-07-23T18:41:13;33.90;42.10
49321;DHT22;35817;44.498;0.166;2022-07-23T18:43:56;33.40;42.80
49321;DHT22;35817;44.498;0.166;2022-07-23T18:46:27;32.90;43.40
49321;DHT22;35817;44.498;0.166;2022-07-23T18:48:55;32.30;44.20
49321;DHT22;35817;44.498;0.166;2022-07-23T19:09:28;29.30;51.80
49321;DHT22;35817;44.498;0.166;2022-07-23T19:11:56;28.90;52.70
49321;DHT22;35817;44.498;0.166;2022-07-23T19:14:25;28.60;53.00
49321;DHT22;35817;44.498;0.166;2022-07-23T19:16:51;28.40;53.40
49321;DHT22;35817;44.498;0.166;2022-07-23T19:29:38;27.40;56.30
49321;DHT22;35817;44.498;0.166;2022-07-23T19:32:06;27.20;56.90
49321;DHT22;35817;44.498;0.166;2022-07-23T19:34:32;27.00;57.70
49321;DHT22;35817;44.498;0.166;2022-07-23T19:36:58;26.90;58.40
49321;DHT22;35817;44.498;0.166;2022-07-23T19:39:24;26.70;58.80
49321;DHT22;35817;44.498;0.166;2022-07-23T19:41:55;26.60;59.10
49321;DHT22;35817;44.498;0.166;2022-07-23T19:44:40;26.50;59.50
49321;DHT22;35817;44.498;0.166;2022-07-23T19:47:06;26.30;60.00
49321;DHT22;35817;44.498;0.166;2022-07-23T19:49:39;26.20;61.20
49321;DHT22;35817;44.498;0.166;2022-07-23T20:10:12;25.50;62.40
49321;DHT22;35817;44.498;0.166;2022-07-23T20:12:49;25.50;62.00
49321;DHT22;35817;44.498;0.166;2022-07-23T20:15:16;25.50;60.60
49321;DHT22;35817;44.498;0.166;2022-07-23T20:17:41;25.50;59.80
49321;DHT22;35817;44.498;0.166;2022-07-23T20:20:10;25.60;59.30
49321;DHT22;35817;44.498;0.166;2022-07-23T20:22:35;25.60;58.90
49321;DHT22;35817;44.498;0.166;2022-07-23T20:25:02;25.60;58.80
49321;DHT22;35817;44.498;0.166;2022-07-23T20:27:27;25.60;58.70
49321;DHT22;35817;44.498;0.166;2022-07-23T20:29:53;25.60;58.70
49321;DHT22;35817;44.498;0.166;2022-07-23T20:32:18;25.60;58.50
49321;DHT22;35817;44.498;0.166;2022-07-23T20:34:44;25.60;58.60
49321;DHT22;35817;44.498;0.166;2022-07-23T20:37:10;25.60;58.70
49321;DHT22;35817;44.498;0.166;2022-07-23T20:50:00;25.40;59.20
49321;DHT22;35817;44.498;0.166;2022-07-23T20:52:28;25.30;59.30
49321;DHT22;35817;44.498;0.166;2022-07-23T20:54:53;25.20;59.30
49321;DHT22;35817;44.498;0.166;2022-07-23T20:57:23;25.20;59.50
49321;DHT22;35817;44.498;0.166;2022-07-23T20:59:51;25.20;59.60
49321;DHT22;35817;44.498;0.166;2022-07-23T21:02:17;25.10;59.70
49321;DHT22;35817;44.498;0.166;2022-07-23T21:04:43;25.10;59.90
49321;DHT22;35817;44.498;0.166;2022-07-23T21:07:30;25.00;60.00
49321;DHT22;35817;44.498;0.166;2022-07-23T21:09:54;25.00;60.10
49321;DHT22;35817;44.498;0.166;2022-07-23T21:12:20;24.90;60.30
49321;DHT22;35817;44.498;0.166;2022-07-23T21:14:51;24.90;60.50
49321;DHT22;35817;44.498;0.166;2022-07-23T21:17:17;24.80;60.80
49321;DHT22;35817;44.498;0.166;2022-07-23T21:19:46;24.80;61.00
49321;DHT22;35817;44.498;0.166;2022-07-23T21:22:12;24.70;61.80
49321;DHT22;35817;44.498;0.166;2022-07-23T21:24:38;24.60;62.50
49321;DHT22;35817;44.498;0.166;2022-07-23T21:27:04;24.40;63.00
49321;DHT22;35817;44.498;0.166;2022-07-23T21:29:30;24.30;63.60
49321;DHT22;35817;44.498;0.166;2022-07-23T21:32:08;24.20;64.50
49321;DHT22;35817;44.498;0.166;2022-07-23T21:34:35;24.00;64.80
49321;DHT22;35817;44.498;0.166;2022-07-23T21:37:01;23.80;65.10
49321;DHT22;35817;44.498;0.166;2022-07-23T21:39:26;23.70;65.50
49321;DHT22;35817;44.498;0.166;2022-07-23T21:41:52;23.60;66.00
49321;DHT22;35817;44.498;0.166;2022-07-23T21:44:18;23.40;66.30
49321;DHT22;35817;44.498;0.166;2022-07-23T21:46:43;23.30;66.80
49321;DHT22;35817;44.498;0.166;2022-07-23T21:49:09;23.30;68.00
49321;DHT22;35817;44.498;0.166;2022-07-23T21:51:35;23.10;68.80
49321;DHT22;35817;44.498;0.166;2022-07-23T21:54:00;23.00;69.70
49321;DHT22;35817;44.498;0.166;2022-07-23T21:56:26;23.00;70.50
49321;DHT22;35817;44.498;0.166;2022-07-23T21:58:52;22.90;71.10
49321;DHT22;35817;44.498;0.166;2022-07-23T22:01:17;22.80;71.90
49321;DHT22;35817;44.498;0.166;2022-07-23T22:03:43;22.70;72.90
49321;DHT22;35817;44.498;0.166;2022-07-23T22:06:08;22.60;74.80
49321;DHT22;35817;44.498;0.166;2022-07-23T22:08:35;22.40;76.30
49321;DHT22;35817;44.498;0.166;2022-07-23T22:11:00;22.30;78.00
49321;DHT22;35817;44.498;0.166;2022-07-23T22:13:26;22.20;78.60
49321;DHT22;35817;44.498;0.166;2022-07-23T22:15:52;22.10;79.20
49321;DHT22;35817;44.498;0.166;2022-07-23T22:18:17;22.00;80.30
49321;DHT22;35817;44.498;0.166;2022-07-23T22:20:43;22.00;80.90
49321;DHT22;35817;44.498;0.166;2022-07-23T22:23:09;21.90;81.60
49321;DHT22;35817;44.498;0.166;2022-07-23T22:25:34;21.80;82.40
49321;DHT22;35817;44.498;0.166;2022-07-23T22:28:03;21.80;82.80